createdAt,value
2023-02-24T00:00:31.012Z,41.40
2023-02-24T00:03:12.731Z,40.80
2023-02-24T00:05:42.845Z,42.70
2023-02-24T00:08:10.694Z,42.10
2023-02-24T00:10:38.484Z,43.80
2023-02-24T00:13:06.341Z,45.10
2023-02-24T00:15:34.179Z,44.10
2023-02-24T00:18:07.150Z,41.70
2023-02-24T00:20:35.610Z,42.70
2023-02-24T00:23:03.809Z,44.70
2023-02-24T00:25:31.652Z,44.90
2023-02-24T00:28:01.652Z,44.10
2023-02-24T00:30:31.549Z,43.70
2023-02-24T00:33:01.397Z,43.40
2023-02-24T00:35:32.248Z,41.40
2023-02-24T00:38:00.817Z,43.80
2023-02-24T00:40:30.767Z,43.30
2023-02-24T00:43:00.481Z,45.70
2023-02-24T00:45:30.960Z,42.60
2023-02-24T00:47:58.928Z,40.40
2023-02-24T00:50:26.852Z,45.70
2023-02-24T00:52:54.631Z,44.40
2023-02-24T00:55:23.261Z,52.00
2023-02-24T00:57:51.086Z,52.10
2023-02-24T01:00:23.426Z,49.20
2023-02-24T01:02:51.321Z,46.10
2023-02-24T01:05:20.210Z,41.70
2023-02-24T01:07:48.076Z,44.60
2023-02-24T01:10:18.445Z,39.80
2023-02-24T01:12:54.077Z,43.50
2023-02-24T01:15:22.877Z,41.60
2023-02-24T01:17:50.824Z,42.60
2023-02-24T01:20:19.126Z,41.60
2023-02-24T01:22:50.580Z,42.00
2023-02-24T01:25:20.524Z,43.80
2023-02-24T01:27:49.028Z,41.80
2023-02-24T01:30:18.344Z,45.10
2023-02-24T01:32:47.301Z,44.60
2023-02-24T01:35:15.963Z,39.20
2023-02-24T01:37:45.194Z,39.90
2023-02-24T01:40:18.786Z,43.60
2023-02-24T01:45:22.850Z,37.10
2023-02-24T01:47:52.208Z,41.80
2023-02-24T01:50:25.999Z,39.50
2023-02-24T01:52:58.831Z,43.40
2023-02-24T01:55:32.783Z,43.60
2023-02-24T01:58:07.881Z,39.20
2023-02-24T02:00:39.054Z,42.20
2023-02-24T02:03:12.176Z,39.60
2023-02-24T02:05:42.414Z,42.10
2023-02-24T02:08:11.180Z,41.90
2023-02-24T02:10:41.333Z,39.90
2023-02-24T02:13:09.197Z,41.00
2023-02-24T02:15:47.739Z,40.00
2023-02-24T02:18:36.425Z,39.20
2023-02-24T02:21:32.622Z,38.90
2023-02-24T02:24:09.241Z,38.70
2023-02-24T02:27:02.376Z,40.00
2023-02-24T02:29:53.286Z,40.50
2023-02-24T02:32:31.744Z,38.60
2023-02-24T02:35:18.865Z,36.50
2023-02-24T02:37:57.116Z,38.20
2023-02-24T02:40:39.026Z,37.50
2023-02-24T02:43:25.953Z,34.00
2023-02-24T02:46:14.904Z,35.20
2023-02-24T02:48:57.348Z,36.50
2023-02-24T02:51:32.168Z,37.30
2023-02-24T02:54:33.963Z,36.40
2023-02-24T02:57:12.938Z,34.60
2023-02-24T02:59:49.317Z,34.30
2023-02-24T03:02:28.626Z,37.20
2023-02-24T03:05:02.163Z,35.30
2023-02-24T03:07:37.584Z,38.30
2023-02-24T03:10:17.645Z,38.00
2023-02-24T03:12:50.657Z,41.90
2023-02-24T03:15:24.153Z,42.10
2023-02-24T03:18:12.032Z,44.80
2023-02-24T03:20:47.866Z,42.50
2023-02-24T03:23:25.768Z,39.00
2023-02-24T03:25:58.857Z,38.20
2023-02-24T03:28:37.347Z,40.30
2023-02-24T03:31:18.208Z,38.70
2023-02-24T03:34:00.640Z,38.00
2023-02-24T03:36:29.501Z,39.00
2023-02-24T03:38:58.643Z,43.20
2023-02-24T03:41:31.651Z,45.00
2023-02-24T03:44:01.520Z,42.60
2023-02-24T03:46:31.922Z,41.50
2023-02-24T03:49:17.052Z,42.50
2023-02-24T03:51:59.669Z,42.70
2023-02-24T03:54:48.420Z,39.90
2023-02-24T03:57:27.182Z,40.80
2023-02-24T04:00:26.050Z,41.90
2023-02-24T04:03:09.675Z,46.90
2023-02-24T04:05:47.650Z,42.70
2023-02-24T04:08:17.196Z,44.80
2023-02-24T04:10:57.444Z,44.90
2023-02-24T04:14:09.938Z,42.50
2023-02-24T04:16:54.112Z,41.70
2023-02-24T04:19:27.676Z,45.60
2023-02-24T04:21:57.289Z,43.00
2023-02-24T04:24:30.465Z,42.90
2023-02-24T04:27:01.938Z,44.10
2023-02-24T04:29:35.850Z,42.50
2023-02-24T04:32:08.961Z,44.90
2023-02-24T04:34:40.354Z,41.80
2023-02-24T04:37:09.213Z,42.10
2023-02-24T04:39:38.496Z,44.50
2023-02-24T04:42:10.876Z,41.50
2023-02-24T04:44:38.683Z,43.80
2023-02-24T04:47:07.274Z,39.10
2023-02-24T04:49:35.191Z,39.40
2023-02-24T04:52:03.068Z,41.30
2023-02-24T04:54:31.524Z,45.10
2023-02-24T04:56:59.498Z,42.20
2023-02-24T04:59:27.947Z,42.00
2023-02-24T05:02:00.402Z,44.20
2023-02-24T05:04:30.111Z,37.60
2023-02-24T05:06:57.990Z,41.60
2023-02-24T05:09:30.025Z,38.40
2023-02-24T05:11:58.403Z,40.80
2023-02-24T05:14:26.354Z,39.80
2023-02-24T05:17:00.036Z,38.20
2023-02-24T05:19:47.460Z,36.90
2023-02-24T05:22:17.637Z,35.30
2023-02-24T05:24:48.009Z,36.90
2023-02-24T05:27:17.294Z,34.70
2023-02-24T05:29:45.200Z,29.10
2023-02-24T05:32:13.191Z,29.80
2023-02-24T05:34:42.709Z,25.70
2023-02-24T05:37:10.857Z,22.90
2023-02-24T05:39:38.786Z,22.00
2023-02-24T05:42:07.149Z,21.60
2023-02-24T05:44:35.949Z,18.70
2023-02-24T05:47:05.541Z,19.20
2023-02-24T05:49:35.260Z,16.80
2023-02-24T05:52:08.769Z,16.80
2023-02-24T05:54:39.900Z,18.00
2023-02-24T05:57:21.330Z,19.20
2023-02-24T05:59:50.569Z,18.70
2023-02-24T06:02:27.483Z,19.30
2023-02-24T06:04:56.065Z,20.10
2023-02-24T06:07:28.733Z,20.40
2023-02-24T06:09:58.793Z,18.20
2023-02-24T06:12:31.871Z,18.60
2023-02-24T06:15:00.406Z,20.00
2023-02-24T06:17:28.574Z,18.80
2023-02-24T06:19:56.742Z,15.30
2023-02-24T06:22:26.411Z,16.00
2023-02-24T06:24:55.212Z,13.20
2023-02-24T06:27:24.953Z,11.20
2023-02-24T06:29:54.975Z,11.70
2023-02-24T06:32:25.592Z,11.60
2023-02-24T06:34:54.438Z,13.00
2023-02-24T06:37:25.479Z,14.10
2023-02-24T06:39:53.413Z,13.50
2023-02-24T06:42:21.901Z,15.10
2023-02-24T06:44:50.405Z,16.60
2023-02-24T06:47:18.566Z,16.40
2023-02-24T06:49:47.974Z,17.10
2023-02-24T06:52:19.087Z,15.60
2023-02-24T06:54:49.084Z,16.90
2023-02-24T06:57:17.380Z,16.70
2023-02-24T06:59:46.116Z,16.90
2023-02-24T07:02:14.193Z,19.40
2023-02-24T07:04:44.789Z,17.60
2023-02-24T07:07:14.417Z,19.60
2023-02-24T07:09:42.715Z,19.60
2023-02-24T07:12:12.539Z,24.20
2023-02-24T07:14:40.820Z,20.50
2023-02-24T07:17:08.874Z,22.50
2023-02-24T07:19:36.947Z,23.50
2023-02-24T07:22:04.857Z,22.40
2023-02-24T07:24:40.653Z,24.90
2023-02-24T07:27:12.630Z,24.80
2023-02-24T07:29:40.511Z,22.00
2023-02-24T07:32:09.454Z,25.90
2023-02-24T07:34:41.007Z,26.80
2023-02-24T07:37:10.154Z,23.00
2023-02-24T07:39:39.494Z,26.40
2023-02-24T07:42:09.684Z,27.70
2023-02-24T07:44:46.652Z,24.10
2023-02-24T07:47:15.902Z,26.80
2023-02-24T07:49:45.252Z,25.00
2023-02-24T07:52:13.408Z,26.30
2023-02-24T07:54:41.249Z,20.70
2023-02-24T07:57:13.982Z,23.40
2023-02-24T07:59:46.772Z,25.90
2023-02-24T08:02:15.859Z,21.30
2023-02-24T08:04:50.111Z,21.30
2023-02-24T08:07:24.767Z,18.20
2023-02-24T08:10:12.121Z,14.40
2023-02-24T08:12:44.544Z,12.40
2023-02-24T08:15:23.747Z,9.70
2023-02-24T08:17:59.629Z,8.90
2023-02-24T08:20:36.005Z,7.20
2023-02-24T08:23:06.496Z,9.40
2023-02-24T08:25:37.197Z,9.20
2023-02-24T08:28:11.447Z,11.50
2023-02-24T08:30:47.108Z,9.10
2023-02-24T08:33:22.040Z,9.00
2023-02-24T08:36:01.003Z,11.20
2023-02-24T08:38:42.058Z,12.70
2023-02-24T08:41:18.251Z,11.20
2023-02-24T08:43:48.398Z,12.10
2023-02-24T08:46:26.589Z,14.10
2023-02-24T08:49:00.569Z,10.90
2023-02-24T08:56:43.546Z,9.70
2023-02-24T08:59:29.366Z,7.90
2023-02-24T09:02:18.403Z,9.20
2023-02-24T09:04:59.004Z,11.10
2023-02-24T09:07:35.529Z,10.90
2023-02-24T09:10:17.761Z,8.50
2023-02-24T09:12:47.010Z,9.30
2023-02-24T09:15:15.743Z,9.60
2023-02-24T09:17:45.392Z,9.80
2023-02-24T09:20:27.128Z,13.20
2023-02-24T09:23:07.772Z,18.30
2023-02-24T09:25:41.742Z,11.90
2023-02-24T09:28:24.624Z,10.50
2023-02-24T09:30:58.487Z,8.50
2023-02-24T09:36:10.326Z,11.30
2023-02-24T09:39:09.809Z,13.30
2023-02-24T09:42:07.984Z,9.20
2023-02-24T09:44:42.075Z,12.50
2023-02-24T09:47:31.008Z,9.90
2023-02-24T09:50:05.978Z,9.30
2023-02-24T09:52:43.166Z,8.50
2023-02-24T09:55:27.665Z,11.20
2023-02-24T09:58:26.971Z,16.10
2023-02-24T10:01:21.278Z,8.60
2023-02-24T10:04:18.548Z,8.50
2023-02-24T10:06:49.150Z,11.60
2023-02-24T10:09:24.703Z,14.90
2023-02-24T10:12:04.061Z,8.60
2023-02-24T10:14:53.019Z,9.10
2023-02-24T10:17:24.259Z,11.80
2023-02-24T10:20:00.091Z,8.00
2023-02-24T10:22:50.789Z,10.10
2023-02-24T10:25:37.498Z,5.90
2023-02-24T10:28:43.950Z,5.60
2023-02-24T10:31:25.993Z,6.00
2023-02-24T10:34:06.118Z,7.20
2023-02-24T10:36:39.312Z,7.20
2023-02-24T10:39:17.064Z,12.20
2023-02-24T10:41:50.168Z,7.70
2023-02-24T10:44:25.583Z,8.40
2023-02-24T10:47:12.482Z,9.10
2023-02-24T10:49:57.146Z,4.50
2023-02-24T10:53:06.725Z,3.50
2023-02-24T10:55:45.353Z,6.60
2023-02-24T10:58:28.522Z,8.20
2023-02-24T11:01:11.959Z,8.80
2023-02-24T11:03:48.172Z,5.30
2023-02-24T11:06:41.310Z,7.80
2023-02-24T11:09:30.089Z,8.80
2023-02-24T11:12:38.454Z,6.90
2023-02-24T11:15:37.478Z,5.10
2023-02-24T11:18:07.011Z,4.90
2023-02-24T11:20:49.497Z,4.10
2023-02-24T11:23:23.643Z,5.60
2023-02-24T11:26:04.716Z,5.60
2023-02-24T11:28:48.907Z,2.60
2023-02-24T11:31:28.770Z,4.70
2023-02-24T11:34:07.607Z,5.10
2023-02-24T11:36:58.096Z,5.00
2023-02-24T11:39:53.081Z,4.40
2023-02-24T11:42:46.118Z,3.40
2023-02-24T11:45:29.979Z,4.10
2023-02-24T11:50:39.837Z,4.70
2023-02-24T11:53:35.493Z,6.40
2023-02-24T11:56:11.155Z,9.10
2023-02-24T11:59:21.310Z,4.50
2023-02-24T12:02:10.605Z,4.50
2023-02-24T12:04:52.549Z,2.50
2023-02-24T12:07:39.023Z,4.20
2023-02-24T12:10:17.774Z,5.40
2023-02-24T12:13:16.202Z,8.50
2023-02-24T12:15:50.630Z,6.80
2023-02-24T12:18:39.679Z,6.70
2023-02-24T12:21:21.598Z,6.20
2023-02-24T12:23:53.619Z,7.50
2023-02-24T12:26:24.302Z,6.60
2023-02-24T12:29:27.881Z,3.40
2023-02-24T12:32:01.755Z,4.70
2023-02-24T12:34:43.501Z,3.40
2023-02-24T12:37:40.203Z,7.10
2023-02-24T12:40:14.230Z,4.40
2023-02-24T12:43:03.642Z,3.40
2023-02-24T12:45:47.797Z,8.50
2023-02-24T12:48:40.711Z,3.50
2023-02-24T12:51:28.554Z,3.40
2023-02-24T12:54:15.529Z,5.50
2023-02-24T12:57:02.720Z,7.00
2023-02-24T12:59:38.086Z,7.30
2023-02-24T13:02:14.997Z,6.80
2023-02-24T13:05:10.139Z,5.80
2023-02-24T13:07:48.335Z,4.30
2023-02-24T13:10:28.648Z,4.80
2023-02-24T13:13:16.460Z,4.00
2023-02-24T13:15:56.309Z,5.10
2023-02-24T13:18:36.579Z,5.80
2023-02-24T13:21:23.423Z,5.00
2023-02-24T13:24:01.083Z,5.80
2023-02-24T13:26:32.143Z,4.20
2023-02-24T13:29:11.479Z,3.30
2023-02-24T13:31:50.881Z,4.70
2023-02-24T13:34:21.905Z,3.80
2023-02-24T13:36:50.327Z,6.60
2023-02-24T13:39:24.277Z,5.80
2023-02-24T13:42:04.274Z,5.90
2023-02-24T13:44:32.774Z,4.60
2023-02-24T13:47:15.803Z,5.40
2023-02-24T13:49:54.389Z,5.10
2023-02-24T13:53:00.751Z,6.40
2023-02-24T13:55:39.698Z,10.00
2023-02-24T13:58:19.203Z,4.60
2023-02-24T14:00:59.898Z,6.60
2023-02-24T14:03:29.213Z,8.00
2023-02-24T14:05:59.301Z,8.60
2023-02-24T14:08:36.572Z,7.30
2023-02-24T14:11:06.746Z,27.90
2023-02-24T14:13:36.684Z,10.60
2023-02-24T14:16:11.830Z,8.60
2023-02-24T14:18:41.022Z,15.30
2023-02-24T14:21:21.462Z,10.50
2023-02-24T14:24:00.562Z,14.60
2023-02-24T14:26:33.619Z,15.30
2023-02-24T14:29:02.134Z,9.00
2023-02-24T14:31:30.443Z,9.20
2023-02-24T14:34:03.452Z,16.80
2023-02-24T14:36:35.790Z,19.10
2023-02-24T14:39:16.868Z,27.20
2023-02-24T14:41:46.092Z,19.00
2023-02-24T14:44:27.201Z,13.50
2023-02-24T14:46:57.444Z,44.30
2023-02-24T14:49:30.845Z,25.90
2023-02-24T14:52:05.543Z,13.70
2023-02-24T14:54:36.398Z,12.90
2023-02-24T14:57:04.955Z,14.80
2023-02-24T14:59:40.091Z,21.90
2023-02-24T15:02:15.310Z,10.60
2023-02-24T15:04:44.602Z,8.00
2023-02-24T15:07:30.907Z,14.30
2023-02-24T15:10:00.128Z,7.70
2023-02-24T15:12:46.840Z,6.90
2023-02-24T15:15:21.994Z,6.80
2023-02-24T15:17:55.574Z,10.60
2023-02-24T15:22:59.526Z,9.50
2023-02-24T15:25:43.448Z,10.10
2023-02-24T15:31:19.839Z,5.50
2023-02-24T15:34:00.327Z,7.00
2023-02-24T15:36:32.751Z,8.10
2023-02-24T15:39:11.826Z,11.80
2023-02-24T15:41:40.799Z,10.20
2023-02-24T15:44:25.184Z,7.80
2023-02-24T15:46:53.518Z,9.50
2023-02-24T15:49:21.475Z,11.80
2023-02-24T15:51:52.393Z,11.10
2023-02-24T15:54:25.116Z,10.20
2023-02-24T15:56:53.030Z,11.30
2023-02-24T15:59:23.432Z,16.70
2023-02-24T16:01:54.161Z,16.40
2023-02-24T16:04:23.221Z,16.60
2023-02-24T16:06:54.689Z,14.70
2023-02-24T16:09:39.912Z,15.80
2023-02-24T16:12:14.970Z,16.20
2023-02-24T16:14:43.905Z,13.10
2023-02-24T16:17:28.128Z,17.70
2023-02-24T16:19:56.928Z,12.50
2023-02-24T16:22:24.909Z,12.00
2023-02-24T16:24:53.166Z,13.40
2023-02-24T16:27:23.356Z,22.10
2023-02-24T16:29:51.244Z,33.10
2023-02-24T16:32:22.158Z,23.50
2023-02-24T16:34:50.154Z,24.20
2023-02-24T16:37:26.352Z,27.60
2023-02-24T16:39:54.836Z,18.20
2023-02-24T16:42:23.012Z,23.50
2023-02-24T16:44:51.149Z,23.40
2023-02-24T16:47:22.898Z,23.30
2023-02-24T16:49:55.336Z,30.10
2023-02-24T16:52:24.802Z,23.40
2023-02-24T16:54:52.700Z,23.50
2023-02-24T16:57:25.639Z,26.50
2023-02-24T16:59:53.717Z,29.90
2023-02-24T17:02:26.070Z,22.40
2023-02-24T17:04:54.204Z,24.30
2023-02-24T17:07:22.082Z,26.50
2023-02-24T17:09:50.494Z,36.50
2023-02-24T17:12:21.912Z,29.80
2023-02-24T17:14:49.982Z,26.30
2023-02-24T17:17:17.917Z,36.70
2023-02-24T17:19:45.742Z,25.50
2023-02-24T17:22:13.572Z,29.30
2023-02-24T17:24:41.412Z,30.60
2023-02-24T17:27:11.062Z,27.10
2023-02-24T17:29:38.920Z,32.30
2023-02-24T17:32:06.917Z,37.80
2023-02-24T17:34:34.844Z,47.90
2023-02-24T17:37:03.688Z,49.70
2023-02-24T17:39:32.671Z,45.10
2023-02-24T17:42:00.888Z,46.70
2023-02-24T17:44:28.840Z,32.30
2023-02-24T17:46:56.741Z,26.90
2023-02-24T17:49:24.860Z,29.10
2023-02-24T17:51:52.859Z,28.30
2023-02-24T17:54:20.727Z,25.10
2023-02-24T17:56:48.642Z,31.30
2023-02-24T17:59:16.604Z,33.20
2023-02-24T18:01:44.431Z,31.10
2023-02-24T18:04:14.742Z,23.70
2023-02-24T18:06:43.368Z,26.80
2023-02-24T18:09:11.856Z,22.20
2023-02-24T18:11:39.791Z,38.60
2023-02-24T18:14:07.717Z,39.60
2023-02-24T18:16:35.686Z,45.50
2023-02-24T18:19:04.266Z,41.20
2023-02-24T18:21:32.319Z,41.30
2023-02-24T18:24:00.156Z,32.70
2023-02-24T18:26:28.617Z,31.20
2023-02-24T18:28:58.297Z,33.00
2023-02-24T18:31:28.066Z,65.00
2023-02-24T18:33:57.152Z,72.50
2023-02-24T18:36:26.029Z,65.80
2023-02-24T18:38:54.041Z,55.80
2023-02-24T18:41:23.611Z,40.10
2023-02-24T18:43:54.240Z,43.70
2023-02-24T18:46:23.604Z,22.40
2023-02-24T18:48:51.937Z,22.10
2023-02-24T18:51:22.289Z,31.40
2023-02-24T18:53:52.783Z,20.40
2023-02-24T18:56:24.550Z,16.50
2023-02-24T18:58:56.214Z,13.30
2023-02-24T19:01:27.153Z,14.70
2023-02-24T19:03:56.322Z,14.30
2023-02-24T19:06:26.979Z,18.40
2023-02-24T19:08:58.873Z,22.20
2023-02-24T19:11:27.155Z,20.40
2023-02-24T19:13:55.751Z,30.70
2023-02-24T19:16:23.951Z,16.40
2023-02-24T19:18:53.768Z,18.60
2023-02-24T19:21:21.755Z,19.10
2023-02-24T19:23:50.467Z,20.30
2023-02-24T19:26:21.287Z,17.60
2023-02-24T19:28:49.760Z,15.20
2023-02-24T19:31:20.819Z,15.00
2023-02-24T19:34:08.625Z,26.50
2023-02-24T19:36:37.736Z,35.20
2023-02-24T19:39:09.645Z,41.80
2023-02-24T19:41:38.316Z,29.40
2023-02-24T19:44:06.142Z,26.40
2023-02-24T19:46:34.374Z,23.00
2023-02-24T19:49:03.115Z,22.90
2023-02-24T19:51:31.343Z,23.60
2023-02-24T19:54:03.174Z,23.80
2023-02-24T19:56:33.932Z,27.30
2023-02-24T19:59:03.780Z,28.10
2023-02-24T20:01:32.262Z,29.30
2023-02-24T20:04:02.290Z,31.60
2023-02-24T20:06:33.210Z,30.10
2023-02-24T20:09:02.430Z,27.60
2023-02-24T20:11:31.021Z,26.40
2023-02-24T20:13:58.936Z,25.20
2023-02-24T20:16:31.983Z,21.50
2023-02-24T20:19:00.678Z,26.30
2023-02-24T20:21:29.207Z,23.30
2023-02-24T20:24:01.409Z,22.50
2023-02-24T20:26:30.061Z,22.60
2023-02-24T20:28:59.993Z,23.90
2023-02-24T20:31:28.641Z,24.50
2023-02-24T20:33:56.651Z,23.10
2023-02-24T20:36:26.948Z,27.50
2023-02-24T20:38:57.775Z,27.70
2023-02-24T20:41:27.721Z,32.60
2023-02-24T20:43:55.932Z,33.40
2023-02-24T20:46:29.653Z,37.60
2023-02-24T20:51:29.481Z,21.70
2023-02-24T20:53:58.785Z,20.10
2023-02-24T20:56:29.667Z,16.60
2023-02-24T20:59:13.796Z,17.40
2023-02-24T21:01:42.316Z,18.10
2023-02-24T21:04:12.650Z,18.20
2023-02-24T21:06:41.023Z,17.60
2023-02-24T21:09:11.884Z,18.20
2023-02-24T21:11:39.992Z,12.40
2023-02-24T21:14:08.070Z,7.90
2023-02-24T21:16:35.933Z,7.40
2023-02-24T21:19:03.781Z,8.10
2023-02-24T21:21:31.614Z,9.20
2023-02-24T21:23:59.413Z,9.70
2023-02-24T21:26:29.184Z,9.70
2023-02-24T21:28:58.610Z,10.50
2023-02-24T21:31:27.195Z,9.90
2023-02-24T21:33:55.948Z,11.00
2023-02-24T21:36:26.054Z,8.80
2023-02-24T21:38:55.369Z,9.60
2023-02-24T21:41:23.924Z,9.10
2023-02-24T21:43:57.088Z,6.60
2023-02-24T21:46:28.136Z,8.90
2023-02-24T21:48:59.548Z,8.90
2023-02-24T21:51:28.375Z,6.60
2023-02-24T21:53:57.305Z,6.80
2023-02-24T21:56:27.924Z,6.80
2023-02-24T21:59:01.159Z,5.50
2023-02-24T22:01:34.913Z,5.70
2023-02-24T22:04:05.644Z,5.70
2023-02-24T22:06:35.863Z,5.00
2023-02-24T22:09:06.199Z,5.30
2023-02-24T22:11:36.606Z,5.10
2023-02-24T22:14:08.334Z,4.40
2023-02-24T22:16:36.804Z,4.80
2023-02-24T22:19:04.935Z,5.80
2023-02-24T22:21:33.294Z,5.30
2023-02-24T22:24:02.999Z,4.20
2023-02-24T22:26:32.179Z,5.20
2023-02-24T22:29:01.051Z,4.90
2023-02-24T22:31:32.368Z,4.50
2023-02-24T22:34:01.076Z,3.80
2023-02-24T22:36:33.455Z,4.10
2023-02-24T22:39:02.234Z,4.40
2023-02-24T22:41:32.981Z,4.60
2023-02-24T22:44:02.905Z,4.20
2023-02-24T22:46:33.960Z,4.10
2023-02-24T22:49:02.868Z,3.90
2023-02-24T22:51:31.138Z,4.70
2023-02-24T22:53:58.966Z,3.80
2023-02-24T22:56:29.041Z,3.60
2023-02-24T22:58:58.214Z,3.50
2023-02-24T23:01:31.884Z,3.70
2023-02-24T23:06:30.640Z,3.00
2023-02-24T23:09:00.495Z,3.20
2023-02-24T23:11:31.041Z,2.30
2023-02-24T23:14:02.144Z,3.40
2023-02-24T23:16:31.967Z,2.90
2023-02-24T23:19:05.996Z,3.60
2023-02-24T23:21:39.868Z,2.50
2023-02-24T23:24:10.955Z,2.30
2023-02-24T23:26:41.847Z,2.60
2023-02-24T23:29:11.881Z,3.00
2023-02-24T23:31:41.094Z,2.20
2023-02-24T23:34:10.053Z,2.30
2023-02-24T23:36:40.763Z,2.20
2023-02-24T23:39:09.310Z,2.30
2023-02-24T23:41:38.487Z,2.10
2023-02-24T23:44:06.381Z,2.30
2023-02-24T23:46:35.864Z,2.20
2023-02-24T23:49:05.184Z,2.30
2023-02-24T23:51:46.916Z,2.00
2023-02-24T23:54:16.964Z,2.80
2023-02-24T23:56:44.852Z,2.50
2023-02-24T23:59:12.698Z,3.10
